首页
METAR-TAF:

METAR-TAF

机场 :

勒阿弗尔, 法国

纬度: 49-31N, 经度: 000-04E, 海拔: 100米

当前天气观测

该预报发布于39分钟前的10:00 UTC
风速26节,风向西,有时为37节阵风
温度 9°C
湿度 93%
气压 989 hPa
能见度10公里或以上
阴天层高于600英尺

METAR: LFOH 271000Z AUTO 27026G37KT 9999 OVC006 09/08 Q0989 BECMG 33020G35KT BKN016

时间: 11:39 (10:39 UTC)

预报

该预报发布于5小时和39分钟前的05:00 UTC
预报有效从27日的 06点(UTC)到 28日的 06点(UTC)
风速15节,风向,有时为25节阵风
能見度: 6000
阴天层高于1200英尺
短暂存在
从 27日的 06点(UTC)到 27日的 09点(UTC)
风速20节,风向西南,有时为30节阵风
能見度: 4000
阴天层高于700英尺
成为
从 27日的 09点(UTC)到 27日的 11点(UTC)
风速20节,风向北转西北,有时为35节阵风
多云层高于1600英尺
成为
从 27日的 16点(UTC)到 27日的 18点(UTC)
风速15节,风向西北,有时为25节阵风
成为
从 27日的 18点(UTC)到 27日的 20点(UTC)
风速8节,风向西转西北

TAF: LFOH 270500Z 2706/2806 19015G25KT 6000 RA OVC012 TEMPO 2706/2709 22020G30KT 4000 RA OVC007 BECMG 2709/2711 33020G35KT NSW BKN016 BECMG 2716/2718 32015G25KT BECMG 2718/2720 29008KT

超过4000个机场的气象观测和天气预报(METAR&TAF报告)。

可查询的气象台以黄色和红色小点在地图上表示。

将鼠标移到小点上方,可查看气象台名称。

然后点击查看天气观测和预报。

如需切换地图:点击带黑十字的绿色按钮放大地图;点击带横线的绿色按钮缩小地图;或者点击绿色箭头查看邻近地区的地图。


METAR-TAF: